sensor_id;sensor_type;location;lat;lon;timestamp;temperature;humidity
11246;DHT22;59870;50.106;8.580;2022-12-07T00:01:29;8.90;93.10
11246;DHT22;59870;50.106;8.580;2022-12-07T00:03:59;8.90;93.10
11246;DHT22;59870;50.106;8.580;2022-12-07T00:06:35;8.90;93.00
11246;DHT22;59870;50.106;8.580;2022-12-07T00:09:04;8.90;93.00
11246;DHT22;59870;50.106;8.580;2022-12-07T00:11:32;8.90;93.10
11246;DHT22;59870;50.106;8.580;2022-12-07T00:14:02;8.80;93.20
11246;DHT22;59870;50.106;8.580;2022-12-07T00:16:32;8.80;93.30
11246;DHT22;59870;50.106;8.580;2022-12-07T00:19:00;8.70;93.40
11246;DHT22;59870;50.106;8.580;2022-12-07T00:21:30;8.70;93.60
11246;DHT22;59870;50.106;8.580;2022-12-07T00:23:59;8.60;93.70
11246;DHT22;59870;50.106;8.580;2022-12-07T00:26:32;8.60;93.90
11246;DHT22;59870;50.106;8.580;2022-12-07T00:29:12;8.60;94.20
11246;DHT22;59870;50.106;8.580;2022-12-07T00:31:40;8.60;94.00
11246;DHT22;59870;50.106;8.580;2022-12-07T00:34:12;8.70;93.90
11246;DHT22;59870;50.106;8.580;2022-12-07T00:36:40;8.70;93.90
11246;DHT22;59870;50.106;8.580;2022-12-07T00:39:07;8.70;93.80
11246;DHT22;59870;50.106;8.580;2022-12-07T00:41:35;8.70;93.70
11246;DHT22;59870;50.106;8.580;2022-12-07T00:44:03;8.70;93.80
11246;DHT22;59870;50.106;8.580;2022-12-07T00:46:30;8.70;93.70
11246;DHT22;59870;50.106;8.580;2022-12-07T00:48:58;8.70;93.70
11246;DHT22;59870;50.106;8.580;2022-12-07T00:51:26;8.70;93.80
11246;DHT22;59870;50.106;8.580;2022-12-07T00:53:53;8.70;93.80
11246;DHT22;59870;50.106;8.580;2022-12-07T00:56:24;8.60;93.70
11246;DHT22;59870;50.106;8.580;2022-12-07T00:58:53;8.60;93.90
11246;DHT22;59870;50.106;8.580;2022-12-07T01:01:21;8.60;93.90
11246;DHT22;59870;50.106;8.580;2022-12-07T01:03:49;8.60;94.00
11246;DHT22;59870;50.106;8.580;2022-12-07T01:06:18;8.60;94.10
11246;DHT22;59870;50.106;8.580;2022-12-07T01:08:46;8.60;94.10
11246;DHT22;59870;50.106;8.580;2022-12-07T01:11:16;8.60;94.10
11246;DHT22;59870;50.106;8.580;2022-12-07T01:13:44;8.60;94.10
11246;DHT22;59870;50.106;8.580;2022-12-07T01:16:14;8.60;94.10
11246;DHT22;59870;50.106;8.580;2022-12-07T01:18:45;8.60;94.00
11246;DHT22;59870;50.106;8.580;2022-12-07T01:21:16;8.60;94.00
11246;DHT22;59870;50.106;8.580;2022-12-07T01:23:44;8.70;94.00
11246;DHT22;59870;50.106;8.580;2022-12-07T01:26:14;8.60;93.80
11246;DHT22;59870;50.106;8.580;2022-12-07T01:28:41;8.60;93.90
11246;DHT22;59870;50.106;8.580;2022-12-07T01:31:12;8.60;94.00
11246;DHT22;59870;50.106;8.580;2022-12-07T01:33:44;8.60;94.10
11246;DHT22;59870;50.106;8.580;2022-12-07T01:36:18;8.60;94.00
11246;DHT22;59870;50.106;8.580;2022-12-07T01:38:48;8.60;94.10
11246;DHT22;59870;50.106;8.580;2022-12-07T01:41:16;8.60;94.10
11246;DHT22;59870;50.106;8.580;2022-12-07T01:44:10;8.60;94.10
11246;DHT22;59870;50.106;8.580;2022-12-07T01:46:43;8.60;94.20
11246;DHT22;59870;50.106;8.580;2022-12-07T01:49:20;8.60;94.20
11246;DHT22;59870;50.106;8.580;2022-12-07T01:51:51;8.60;94.20
11246;DHT22;59870;50.106;8.580;2022-12-07T01:54:20;8.60;94.20
11246;DHT22;59870;50.106;8.580;2022-12-07T01:56:51;8.60;94.10
11246;DHT22;59870;50.106;8.580;2022-12-07T01:59:22;8.60;94.10
11246;DHT22;59870;50.106;8.580;2022-12-07T02:01:53;8.60;94.10
11246;DHT22;59870;50.106;8.580;2022-12-07T02:04:22;8.60;94.10
11246;DHT22;59870;50.106;8.580;2022-12-07T02:06:50;8.60;94.10
11246;DHT22;59870;50.106;8.580;2022-12-07T02:09:21;8.60;94.10
11246;DHT22;59870;50.106;8.580;2022-12-07T02:11:48;8.60;94.00
11246;DHT22;59870;50.106;8.580;2022-12-07T02:14:17;8.60;94.10
11246;DHT22;59870;50.106;8.580;2022-12-07T02:17:04;8.60;93.80
11246;DHT22;59870;50.106;8.580;2022-12-07T02:20:00;8.90;94.30
11246;DHT22;59870;50.106;8.580;2022-12-07T02:28:34;8.60;94.50
11246;DHT22;59870;50.106;8.580;2022-12-07T02:31:11;8.60;94.50
11246;DHT22;59870;50.106;8.580;2022-12-07T02:33:54;8.50;94.50
11246;DHT22;59870;50.106;8.580;2022-12-07T02:36:28;8.50;94.60
11246;DHT22;59870;50.106;8.580;2022-12-07T02:39:01;8.50;94.60
11246;DHT22;59870;50.106;8.580;2022-12-07T02:41:47;8.50;94.50
11246;DHT22;59870;50.106;8.580;2022-12-07T02:44:21;8.50;94.40
11246;DHT22;59870;50.106;8.580;2022-12-07T02:46:54;8.50;94.40
11246;DHT22;59870;50.106;8.580;2022-12-07T02:49:24;8.50;94.40
11246;DHT22;59870;50.106;8.580;2022-12-07T02:51:53;8.80;94.50
11246;DHT22;59870;50.106;8.580;2022-12-07T02:54:21;8.90;94.60
11246;DHT22;59870;50.106;8.580;2022-12-07T03:02:25;8.50;94.40
11246;DHT22;59870;50.106;8.580;2022-12-07T03:11:10;8.50;94.40
11246;DHT22;59870;50.106;8.580;2022-12-07T03:16:42;8.50;94.20
11246;DHT22;59870;50.106;8.580;2022-12-07T03:19:18;8.40;94.40
11246;DHT22;59870;50.106;8.580;2022-12-07T03:21:51;8.40;94.50
11246;DHT22;59870;50.106;8.580;2022-12-07T03:24:26;8.40;94.60
11246;DHT22;59870;50.106;8.580;2022-12-07T03:27:03;8.40;94.70
11246;DHT22;59870;50.106;8.580;2022-12-07T03:29:37;8.40;94.70
11246;DHT22;59870;50.106;8.580;2022-12-07T03:32:16;8.40;94.80
11246;DHT22;59870;50.106;8.580;2022-12-07T03:34:53;8.40;94.80
11246;DHT22;59870;50.106;8.580;2022-12-07T03:37:31;8.40;94.80
11246;DHT22;59870;50.106;8.580;2022-12-07T03:42:46;8.50;94.60
11246;DHT22;59870;50.106;8.580;2022-12-07T03:45:14;8.50;94.60
11246;DHT22;59870;50.106;8.580;2022-12-07T03:53:25;8.50;94.60
11246;DHT22;59870;50.106;8.580;2022-12-07T03:55:57;8.50;94.60
11246;DHT22;59870;50.106;8.580;2022-12-07T03:58:25;8.50;94.50
11246;DHT22;59870;50.106;8.580;2022-12-07T04:00:53;8.50;94.60
11246;DHT22;59870;50.106;8.580;2022-12-07T04:03:20;8.50;94.60
11246;DHT22;59870;50.106;8.580;2022-12-07T04:05:48;8.50;94.60
11246;DHT22;59870;50.106;8.580;2022-12-07T04:08:16;8.50;94.70
11246;DHT22;59870;50.106;8.580;2022-12-07T04:10:44;8.50;94.70
11246;DHT22;59870;50.106;8.580;2022-12-07T04:13:11;8.50;94.60
11246;DHT22;59870;50.106;8.580;2022-12-07T04:15:39;8.50;94.60
11246;DHT22;59870;50.106;8.580;2022-12-07T04:18:06;8.50;94.60
11246;DHT22;59870;50.106;8.580;2022-12-07T04:20:34;8.50;94.60
11246;DHT22;59870;50.106;8.580;2022-12-07T04:23:01;8.60;94.60
11246;DHT22;59870;50.106;8.580;2022-12-07T04:25:29;8.60;94.60
11246;DHT22;59870;50.106;8.580;2022-12-07T04:27:57;8.60;94.60
11246;DHT22;59870;50.106;8.580;2022-12-07T04:30:24;8.60;94.50
11246;DHT22;59870;50.106;8.580;2022-12-07T04:32:52;8.60;94.60
11246;DHT22;59870;50.106;8.580;2022-12-07T04:35:20;8.50;94.60
11246;DHT22;59870;50.106;8.580;2022-12-07T04:37:47;8.60;94.60
11246;DHT22;59870;50.106;8.580;2022-12-07T04:40:15;8.50;94.60
11246;DHT22;59870;50.106;8.580;2022-12-07T04:42:43;8.60;94.60
11246;DHT22;59870;50.106;8.580;2022-12-07T04:45:10;8.60;94.60
11246;DHT22;59870;50.106;8.580;2022-12-07T04:47:38;8.60;94.50
11246;DHT22;59870;50.106;8.580;2022-12-07T04:50:06;9.00;94.70
11246;DHT22;59870;50.106;8.580;2022-12-07T04:52:34;8.60;94.50
11246;DHT22;59870;50.106;8.580;2022-12-07T04:55:02;8.60;94.90
11246;DHT22;59870;50.106;8.580;2022-12-07T04:57:29;8.60;94.50
11246;DHT22;59870;50.106;8.580;2022-12-07T04:59:57;8.60;94.50
11246;DHT22;59870;50.106;8.580;2022-12-07T05:02:24;8.60;94.50
11246;DHT22;59870;50.106;8.580;2022-12-07T05:04:51;8.60;94.60
11246;DHT22;59870;50.106;8.580;2022-12-07T05:07:19;8.60;94.60
11246;DHT22;59870;50.106;8.580;2022-12-07T05:09:46;8.60;95.00
11246;DHT22;59870;50.106;8.580;2022-12-07T05:12:16;8.60;94.80
11246;DHT22;59870;50.106;8.580;2022-12-07T05:14:44;8.60;94.70
11246;DHT22;59870;50.106;8.580;2022-12-07T05:17:11;8.60;94.60
11246;DHT22;59870;50.106;8.580;2022-12-07T05:19:39;8.60;94.50
11246;DHT22;59870;50.106;8.580;2022-12-07T05:22:06;8.60;94.80
11246;DHT22;59870;50.106;8.580;2022-12-07T05:24:34;8.60;94.80
11246;DHT22;59870;50.106;8.580;2022-12-07T05:27:01;8.60;94.90
11246;DHT22;59870;50.106;8.580;2022-12-07T05:29:28;8.60;94.90
11246;DHT22;59870;50.106;8.580;2022-12-07T05:31:56;8.70;94.80
11246;DHT22;59870;50.106;8.580;2022-12-07T05:34:23;8.60;94.90
11246;DHT22;59870;50.106;8.580;2022-12-07T05:36:51;8.70;95.00
11246;DHT22;59870;50.106;8.580;2022-12-07T05:39:21;8.60;95.00
11246;DHT22;59870;50.106;8.580;2022-12-07T05:41:49;8.60;95.00
11246;DHT22;59870;50.106;8.580;2022-12-07T05:44:34;8.60;95.10
11246;DHT22;59870;50.106;8.580;2022-12-07T05:47:02;8.60;95.10
11246;DHT22;59870;50.106;8.580;2022-12-07T05:49:29;8.60;95.00
11246;DHT22;59870;50.106;8.580;2022-12-07T05:51:57;8.70;95.10
11246;DHT22;59870;50.106;8.580;2022-12-07T05:54:24;8.70;95.10
11246;DHT22;59870;50.106;8.580;2022-12-07T05:56:53;8.70;95.00
11246;DHT22;59870;50.106;8.580;2022-12-07T05:59:21;8.70;95.00
11246;DHT22;59870;50.106;8.580;2022-12-07T06:02:03;8.70;95.10
11246;DHT22;59870;50.106;8.580;2022-12-07T06:04:33;8.70;95.10
11246;DHT22;59870;50.106;8.580;2022-12-07T06:07:01;8.80;95.00
11246;DHT22;59870;50.106;8.580;2022-12-07T06:09:29;8.80;94.90
11246;DHT22;59870;50.106;8.580;2022-12-07T06:11:57;8.80;95.00
11246;DHT22;59870;50.106;8.580;2022-12-07T06:14:44;8.60;95.00
11246;DHT22;59870;50.106;8.580;2022-12-07T06:17:12;8.80;95.20
11246;DHT22;59870;50.106;8.580;2022-12-07T06:19:43;8.80;95.10
11246;DHT22;59870;50.106;8.580;2022-12-07T06:22:10;8.90;95.10
11246;DHT22;59870;50.106;8.580;2022-12-07T06:24:39;8.80;95.10
11246;DHT22;59870;50.106;8.580;2022-12-07T06:27:06;8.80;95.20
11246;DHT22;59870;50.106;8.580;2022-12-07T06:29:34;8.90;95.20
11246;DHT22;59870;50.106;8.580;2022-12-07T06:32:01;8.90;95.20
11246;DHT22;59870;50.106;8.580;2022-12-07T06:34:29;8.90;95.20
11246;DHT22;59870;50.106;8.580;2022-12-07T06:36:57;8.90;95.20
11246;DHT22;59870;50.106;8.580;2022-12-07T06:39:27;8.90;95.20
11246;DHT22;59870;50.106;8.580;2022-12-07T06:41:55;8.90;95.30
11246;DHT22;59870;50.106;8.580;2022-12-07T06:44:23;8.90;95.20
11246;DHT22;59870;50.106;8.580;2022-12-07T06:46:56;8.90;94.90
11246;DHT22;59870;50.106;8.580;2022-12-07T06:49:44;8.90;95.20
11246;DHT22;59870;50.106;8.580;2022-12-07T06:52:11;8.90;95.20
11246;DHT22;59870;50.106;8.580;2022-12-07T06:54:38;8.90;95.10
11246;DHT22;59870;50.106;8.580;2022-12-07T06:57:06;9.00;94.90
11246;DHT22;59870;50.106;8.580;2022-12-07T06:59:34;8.90;95.10
11246;DHT22;59870;50.106;8.580;2022-12-07T07:02:04;8.90;95.00
11246;DHT22;59870;50.106;8.580;2022-12-07T07:04:31;9.20;95.20
11246;DHT22;59870;50.106;8.580;2022-12-07T07:06:59;8.90;95.00
11246;DHT22;59870;50.106;8.580;2022-12-07T07:09:26;8.90;95.00
11246;DHT22;59870;50.106;8.580;2022-12-07T07:11:54;8.90;95.00
11246;DHT22;59870;50.106;8.580;2022-12-07T07:14:21;8.90;95.00
11246;DHT22;59870;50.106;8.580;2022-12-07T07:16:49;8.90;95.00
11246;DHT22;59870;50.106;8.580;2022-12-07T07:19:17;8.90;95.00
11246;DHT22;59870;50.106;8.580;2022-12-07T07:21:44;8.90;95.10
11246;DHT22;59870;50.106;8.580;2022-12-07T07:24:12;9.00;94.90
11246;DHT22;59870;50.106;8.580;2022-12-07T07:26:41;8.90;95.00
11246;DHT22;59870;50.106;8.580;2022-12-07T07:29:08;9.00;94.80
11246;DHT22;59870;50.106;8.580;2022-12-07T07:31:36;9.00;95.10
11246;DHT22;59870;50.106;8.580;2022-12-07T07:34:04;9.00;95.00
11246;DHT22;59870;50.106;8.580;2022-12-07T07:36:32;9.00;94.80
11246;DHT22;59870;50.106;8.580;2022-12-07T07:39:00;9.00;95.10
11246;DHT22;59870;50.106;8.580;2022-12-07T07:41:27;9.00;95.00
11246;DHT22;59870;50.106;8.580;2022-12-07T07:43:55;9.00;94.70
11246;DHT22;59870;50.106;8.580;2022-12-07T07:46:22;9.10;94.90
11246;DHT22;59870;50.106;8.580;2022-12-07T07:48:50;9.00;94.80
11246;DHT22;59870;50.106;8.580;2022-12-07T07:51:17;9.00;94.60
11246;DHT22;59870;50.106;8.580;2022-12-07T07:53:44;9.00;94.90
11246;DHT22;59870;50.106;8.580;2022-12-07T07:56:12;9.10;94.80
11246;DHT22;59870;50.106;8.580;2022-12-07T07:58:39;9.10;94.80
11246;DHT22;59870;50.106;8.580;2022-12-07T08:01:07;9.10;94.60
11246;DHT22;59870;50.106;8.580;2022-12-07T08:03:35;9.10;94.70
11246;DHT22;59870;50.106;8.580;2022-12-07T08:06:03;9.10;94.70
11246;DHT22;59870;50.106;8.580;2022-12-07T08:08:31;9.10;94.60
11246;DHT22;59870;50.106;8.580;2022-12-07T08:10:58;9.10;94.60
11246;DHT22;59870;50.106;8.580;2022-12-07T08:13:29;9.10;94.70
11246;DHT22;59870;50.106;8.580;2022-12-07T08:15:58;9.10;94.70
11246;DHT22;59870;50.106;8.580;2022-12-07T08:18:25;9.00;94.80
11246;DHT22;59870;50.106;8.580;2022-12-07T08:20:59;9.00;95.20
11246;DHT22;59870;50.106;8.580;2022-12-07T08:23:28;9.00;94.90
11246;DHT22;59870;50.106;8.580;2022-12-07T08:26:08;9.00;94.70
11246;DHT22;59870;50.106;8.580;2022-12-07T08:28:36;9.10;94.90
11246;DHT22;59870;50.106;8.580;2022-12-07T08:31:15;9.00;94.90
11246;DHT22;59870;50.106;8.580;2022-12-07T08:33:46;9.00;94.90
11246;DHT22;59870;50.106;8.580;2022-12-07T08:36:14;9.10;95.00
11246;DHT22;59870;50.106;8.580;2022-12-07T08:38:42;9.10;95.00
11246;DHT22;59870;50.106;8.580;2022-12-07T08:41:29;9.10;95.00
11246;DHT22;59870;50.106;8.580;2022-12-07T08:43:57;9.20;94.80
11246;DHT22;59870;50.106;8.580;2022-12-07T08:46:40;9.20;94.70
11246;DHT22;59870;50.106;8.580;2022-12-07T08:49:16;9.30;94.70
11246;DHT22;59870;50.106;8.580;2022-12-07T08:51:45;9.20;94.60
11246;DHT22;59870;50.106;8.580;2022-12-07T08:54:15;9.30;94.50
11246;DHT22;59870;50.106;8.580;2022-12-07T08:56:44;9.30;94.50
11246;DHT22;59870;50.106;8.580;2022-12-07T08:59:15;9.30;94.40
11246;DHT22;59870;50.106;8.580;2022-12-07T09:01:42;9.30;94.40
11246;DHT22;59870;50.106;8.580;2022-12-07T09:04:10;9.30;94.40
11246;DHT22;59870;50.106;8.580;2022-12-07T09:06:38;9.30;94.50
11246;DHT22;59870;50.106;8.580;2022-12-07T09:09:06;9.40;94.60
11246;DHT22;59870;50.106;8.580;2022-12-07T09:11:35;9.50;94.90
11246;DHT22;59870;50.106;8.580;2022-12-07T09:14:02;9.70;94.70
11246;DHT22;59870;50.106;8.580;2022-12-07T09:16:31;9.90;94.60
11246;DHT22;59870;50.106;8.580;2022-12-07T09:18:59;10.30;94.00
11246;DHT22;59870;50.106;8.580;2022-12-07T09:21:26;10.50;93.50
11246;DHT22;59870;50.106;8.580;2022-12-07T09:23:54;10.80;93.30
11246;DHT22;59870;50.106;8.580;2022-12-07T09:26:21;10.70;92.90
11246;DHT22;59870;50.106;8.580;2022-12-07T09:28:49;11.00;92.90
11246;DHT22;59870;50.106;8.580;2022-12-07T09:31:16;11.20;92.50
11246;DHT22;59870;50.106;8.580;2022-12-07T09:33:54;11.40;92.50
11246;DHT22;59870;50.106;8.580;2022-12-07T09:36:23;11.50;92.00
11246;DHT22;59870;50.106;8.580;2022-12-07T09:38:52;11.90;91.80
11246;DHT22;59870;50.106;8.580;2022-12-07T09:41:20;12.10;91.30
11246;DHT22;59870;50.106;8.580;2022-12-07T09:43:47;12.20;90.80
11246;DHT22;59870;50.106;8.580;2022-12-07T09:46:16;12.30;90.90
11246;DHT22;59870;50.106;8.580;2022-12-07T09:48:47;12.30;90.60
11246;DHT22;59870;50.106;8.580;2022-12-07T09:51:21;12.40;90.30
11246;DHT22;59870;50.106;8.580;2022-12-07T09:53:54;12.40;89.80
11246;DHT22;59870;50.106;8.580;2022-12-07T09:56:22;12.40;90.10
11246;DHT22;59870;50.106;8.580;2022-12-07T09:58:58;12.40;90.10
11246;DHT22;59870;50.106;8.580;2022-12-07T10:01:30;12.40;90.00
11246;DHT22;59870;50.106;8.580;2022-12-07T10:04:08;12.50;89.40
11246;DHT22;59870;50.106;8.580;2022-12-07T10:06:36;12.50;89.50
11246;DHT22;59870;50.106;8.580;2022-12-07T10:09:17;12.50;89.00
11246;DHT22;59870;50.106;8.580;2022-12-07T10:12:06;12.60;89.40
11246;DHT22;59870;50.106;8.580;2022-12-07T10:14:37;12.60;89.50
11246;DHT22;59870;50.106;8.580;2022-12-07T10:17:37;12.70;88.60
11246;DHT22;59870;50.106;8.580;2022-12-07T10:22:58;12.70;88.40
11246;DHT22;59870;50.106;8.580;2022-12-07T10:25:32;12.70;88.40
11246;DHT22;59870;50.106;8.580;2022-12-07T10:28:11;12.70;87.70
11246;DHT22;59870;50.106;8.580;2022-12-07T10:31:27;12.70;87.20
11246;DHT22;59870;50.106;8.580;2022-12-07T10:33:56;12.60;87.60
11246;DHT22;59870;50.106;8.580;2022-12-07T10:36:38;12.50;86.00
11246;DHT22;59870;50.106;8.580;2022-12-07T10:39:18;12.50;85.50
11246;DHT22;59870;50.106;8.580;2022-12-07T10:41:54;12.40;85.50
11246;DHT22;59870;50.106;8.580;2022-12-07T10:44:27;12.40;85.70
11246;DHT22;59870;50.106;8.580;2022-12-07T10:47:32;12.30;85.70
11246;DHT22;59870;50.106;8.580;2022-12-07T10:53:03;12.30;86.40
11246;DHT22;59870;50.106;8.580;2022-12-07T10:56:07;12.30;86.60
11246;DHT22;59870;50.106;8.580;2022-12-07T10:59:15;12.30;85.70
11246;DHT22;59870;50.106;8.580;2022-12-07T11:01:57;12.30;84.90
11246;DHT22;59870;50.106;8.580;2022-12-07T11:04:50;12.30;84.80
11246;DHT22;59870;50.106;8.580;2022-12-07T11:07:39;12.30;85.20
11246;DHT22;59870;50.106;8.580;2022-12-07T11:16:09;12.20;85.10
11246;DHT22;59870;50.106;8.580;2022-12-07T11:18:48;12.20;84.90
11246;DHT22;59870;50.106;8.580;2022-12-07T11:21:26;12.10;85.60
11246;DHT22;59870;50.106;8.580;2022-12-07T11:24:06;12.10;86.10
11246;DHT22;59870;50.106;8.580;2022-12-07T11:27:01;12.10;85.00
11246;DHT22;59870;50.106;8.580;2022-12-07T11:33:09;12.10;84.80
11246;DHT22;59870;50.106;8.580;2022-12-07T11:36:14;12.10;84.80
11246;DHT22;59870;50.106;8.580;2022-12-07T11:38:52;12.10;83.30
11246;DHT22;59870;50.106;8.580;2022-12-07T11:41:24;12.10;82.80
11246;DHT22;59870;50.106;8.580;2022-12-07T11:44:17;12.10;82.10
11246;DHT22;59870;50.106;8.580;2022-12-07T11:46:59;12.00;82.90
11246;DHT22;59870;50.106;8.580;2022-12-07T11:53:30;11.90;82.60
11246;DHT22;59870;50.106;8.580;2022-12-07T11:55:41;11.90;83.90
11246;DHT22;59870;50.106;8.580;2022-12-07T11:58:20;11.90;82.60
11246;DHT22;59870;50.106;8.580;2022-12-07T12:00:52;11.90;82.70
11246;DHT22;59870;50.106;8.580;2022-12-07T12:03:30;11.90;83.80
11246;DHT22;59870;50.106;8.580;2022-12-07T12:05:59;11.90;83.60
11246;DHT22;59870;50.106;8.580;2022-12-07T12:08:41;11.90;83.80
11246;DHT22;59870;50.106;8.580;2022-12-07T12:11:56;11.90;84.10
11246;DHT22;59870;50.106;8.580;2022-12-07T12:20:58;12.00;85.00
11246;DHT22;59870;50.106;8.580;2022-12-07T12:23:42;12.00;84.30
11246;DHT22;59870;50.106;8.580;2022-12-07T12:26:32;12.00;83.80
11246;DHT22;59870;50.106;8.580;2022-12-07T12:29:05;12.00;84.40
11246;DHT22;59870;50.106;8.580;2022-12-07T12:31:39;12.00;84.50
11246;DHT22;59870;50.106;8.580;2022-12-07T12:34:30;12.00;84.70
11246;DHT22;59870;50.106;8.580;2022-12-07T12:36:57;12.00;84.90
11246;DHT22;59870;50.106;8.580;2022-12-07T12:39:25;12.00;84.40
11246;DHT22;59870;50.106;8.580;2022-12-07T12:41:55;12.00;84.50
11246;DHT22;59870;50.106;8.580;2022-12-07T12:49:34;12.10;83.60
11246;DHT22;59870;50.106;8.580;2022-12-07T12:55:10;12.10;83.30
11246;DHT22;59870;50.106;8.580;2022-12-07T12:57:39;12.00;83.70
11246;DHT22;59870;50.106;8.580;2022-12-07T13:00:20;12.00;83.70
11246;DHT22;59870;50.106;8.580;2022-12-07T13:02:56;12.00;84.50
11246;DHT22;59870;50.106;8.580;2022-12-07T13:05:29;11.90;84.60
11246;DHT22;59870;50.106;8.580;2022-12-07T13:08:00;11.90;85.10
11246;DHT22;59870;50.106;8.580;2022-12-07T13:15:36;11.90;84.90
11246;DHT22;59870;50.106;8.580;2022-12-07T13:26:35;12.00;83.50
11246;DHT22;59870;50.106;8.580;2022-12-07T13:31:38;11.90;83.80
11246;DHT22;59870;50.106;8.580;2022-12-07T13:34:47;11.90;85.50
11246;DHT22;59870;50.106;8.580;2022-12-07T13:39:59;11.80;85.30
11246;DHT22;59870;50.106;8.580;2022-12-07T13:42:33;11.70;85.50
11246;DHT22;59870;50.106;8.580;2022-12-07T13:45:31;11.70;86.00
11246;DHT22;59870;50.106;8.580;2022-12-07T13:48:30;11.60;86.20
11246;DHT22;59870;50.106;8.580;2022-12-07T13:51:01;11.60;86.30
11246;DHT22;59870;50.106;8.580;2022-12-07T13:53:29;11.60;86.40
11246;DHT22;59870;50.106;8.580;2022-12-07T13:55:58;11.60;86.40
11246;DHT22;59870;50.106;8.580;2022-12-07T13:58:35;11.50;86.80
11246;DHT22;59870;50.106;8.580;2022-12-07T14:01:03;11.50;86.30
11246;DHT22;59870;50.106;8.580;2022-12-07T14:03:33;11.50;86.30
11246;DHT22;59870;50.106;8.580;2022-12-07T14:06:25;11.50;86.10
11246;DHT22;59870;50.106;8.580;2022-12-07T14:09:08;11.50;86.90
11246;DHT22;59870;50.106;8.580;2022-12-07T14:11:37;11.40;86.60
11246;DHT22;59870;50.106;8.580;2022-12-07T14:14:05;11.40;86.70
11246;DHT22;59870;50.106;8.580;2022-12-07T14:16:36;11.40;87.00
11246;DHT22;59870;50.106;8.580;2022-12-07T14:22:55;11.40;88.00
11246;DHT22;59870;50.106;8.580;2022-12-07T14:25:27;11.40;87.90
11246;DHT22;59870;50.106;8.580;2022-12-07T14:27:57;11.40;87.50
11246;DHT22;59870;50.106;8.580;2022-12-07T14:30:28;11.40;88.00
11246;DHT22;59870;50.106;8.580;2022-12-07T14:33:02;11.40;88.30
11246;DHT22;59870;50.106;8.580;2022-12-07T14:35:31;11.40;87.60
11246;DHT22;59870;50.106;8.580;2022-12-07T14:37:58;11.40;88.30
11246;DHT22;59870;50.106;8.580;2022-12-07T14:40:28;11.40;88.60
11246;DHT22;59870;50.106;8.580;2022-12-07T14:43:04;11.40;90.20
11246;DHT22;59870;50.106;8.580;2022-12-07T14:45:32;11.30;90.70
11246;DHT22;59870;50.106;8.580;2022-12-07T14:47:59;11.30;90.40
11246;DHT22;59870;50.106;8.580;2022-12-07T14:50:52;11.20;90.50
11246;DHT22;59870;50.106;8.580;2022-12-07T14:53:45;11.10;90.40
11246;DHT22;59870;50.106;8.580;2022-12-07T14:56:19;11.00;90.80
11246;DHT22;59870;50.106;8.580;2022-12-07T14:58:46;10.90;90.80
11246;DHT22;59870;50.106;8.580;2022-12-07T15:01:15;10.90;91.30
11246;DHT22;59870;50.106;8.580;2022-12-07T15:03:43;10.90;91.30
11246;DHT22;59870;50.106;8.580;2022-12-07T15:06:14;10.80;91.20
11246;DHT22;59870;50.106;8.580;2022-12-07T15:08:42;10.80;91.60
11246;DHT22;59870;50.106;8.580;2022-12-07T15:11:18;10.70;91.50
11246;DHT22;59870;50.106;8.580;2022-12-07T15:13:45;10.70;91.80
11246;DHT22;59870;50.106;8.580;2022-12-07T15:16:36;10.70;91.60
11246;DHT22;59870;50.106;8.580;2022-12-07T15:19:34;10.60;91.90
11246;DHT22;59870;50.106;8.580;2022-12-07T15:22:04;10.60;91.60
11246;DHT22;59870;50.106;8.580;2022-12-07T15:24:45;10.60;92.00
11246;DHT22;59870;50.106;8.580;2022-12-07T15:27:15;10.60;91.90
11246;DHT22;59870;50.106;8.580;2022-12-07T15:29:51;10.60;92.30
11246;DHT22;59870;50.106;8.580;2022-12-07T15:32:30;10.60;92.20
11246;DHT22;59870;50.106;8.580;2022-12-07T15:35:02;10.50;92.10
11246;DHT22;59870;50.106;8.580;2022-12-07T15:37:30;10.60;92.00
11246;DHT22;59870;50.106;8.580;2022-12-07T15:39:57;10.50;92.10
11246;DHT22;59870;50.106;8.580;2022-12-07T15:42:31;10.50;92.10
11246;DHT22;59870;50.106;8.580;2022-12-07T15:45:00;10.40;92.00
11246;DHT22;59870;50.106;8.580;2022-12-07T15:47:37;10.40;92.10
11246;DHT22;59870;50.106;8.580;2022-12-07T15:50:25;10.40;92.00
11246;DHT22;59870;50.106;8.580;2022-12-07T15:52:52;10.40;91.90
11246;DHT22;59870;50.106;8.580;2022-12-07T15:55:20;10.40;92.10
11246;DHT22;59870;50.106;8.580;2022-12-07T15:57:47;10.40;92.00
11246;DHT22;59870;50.106;8.580;2022-12-07T16:00:15;10.30;92.00
11246;DHT22;59870;50.106;8.580;2022-12-07T16:02:42;10.30;92.30
11246;DHT22;59870;50.106;8.580;2022-12-07T16:05:10;10.30;92.40
11246;DHT22;59870;50.106;8.580;2022-12-07T16:07:38;10.30;92.10
11246;DHT22;59870;50.106;8.580;2022-12-07T16:10:06;10.20;92.30
11246;DHT22;59870;50.106;8.580;2022-12-07T16:12:33;10.20;92.50
11246;DHT22;59870;50.106;8.580;2022-12-07T16:15:01;10.20;92.70
11246;DHT22;59870;50.106;8.580;2022-12-07T16:17:29;10.20;92.50
11246;DHT22;59870;50.106;8.580;2022-12-07T16:19:57;10.20;92.60
11246;DHT22;59870;50.106;8.580;2022-12-07T16:22:25;10.20;92.60
11246;DHT22;59870;50.106;8.580;2022-12-07T16:24:52;10.20;92.60
11246;DHT22;59870;50.106;8.580;2022-12-07T16:27:20;10.50;92.60
11246;DHT22;59870;50.106;8.580;2022-12-07T16:29:47;10.20;92.50
11246;DHT22;59870;50.106;8.580;2022-12-07T16:32:15;10.10;92.70
11246;DHT22;59870;50.106;8.580;2022-12-07T16:34:42;10.10;92.40
11246;DHT22;59870;50.106;8.580;2022-12-07T16:37:09;10.10;92.30
11246;DHT22;59870;50.106;8.580;2022-12-07T16:39:37;10.10;92.20
11246;DHT22;59870;50.106;8.580;2022-12-07T16:42:05;10.10;92.10
11246;DHT22;59870;50.106;8.580;2022-12-07T16:44:34;10.10;92.00
11246;DHT22;59870;50.106;8.580;2022-12-07T16:47:02;10.00;92.10
11246;DHT22;59870;50.106;8.580;2022-12-07T16:49:30;10.00;92.10
11246;DHT22;59870;50.106;8.580;2022-12-07T16:51:58;10.10;92.10
11246;DHT22;59870;50.106;8.580;2022-12-07T16:54:47;10.10;92.10
11246;DHT22;59870;50.106;8.580;2022-12-07T16:57:15;10.10;92.50
11246;DHT22;59870;50.106;8.580;2022-12-07T16:59:50;10.00;92.60
11246;DHT22;59870;50.106;8.580;2022-12-07T17:02:18;10.00;92.70
11246;DHT22;59870;50.106;8.580;2022-12-07T17:04:46;10.00;92.80
11246;DHT22;59870;50.106;8.580;2022-12-07T17:07:13;10.00;92.80
11246;DHT22;59870;50.106;8.580;2022-12-07T17:09:44;10.00;93.00
11246;DHT22;59870;50.106;8.580;2022-12-07T17:12:25;10.00;92.90
11246;DHT22;59870;50.106;8.580;2022-12-07T17:14:53;9.90;93.50
11246;DHT22;59870;50.106;8.580;2022-12-07T17:17:39;9.90;93.50
11246;DHT22;59870;50.106;8.580;2022-12-07T17:20:07;9.90;93.50
11246;DHT22;59870;50.106;8.580;2022-12-07T17:22:34;9.90;93.40
11246;DHT22;59870;50.106;8.580;2022-12-07T17:25:06;9.90;93.20
11246;DHT22;59870;50.106;8.580;2022-12-07T17:27:44;9.90;93.50
11246;DHT22;59870;50.106;8.580;2022-12-07T17:30:13;9.90;93.50
11246;DHT22;59870;50.106;8.580;2022-12-07T17:32:40;9.90;93.50
11246;DHT22;59870;50.106;8.580;2022-12-07T17:35:08;9.80;93.60
11246;DHT22;59870;50.106;8.580;2022-12-07T17:37:37;9.80;93.40